sensor_id;sensor_type;location;lat;lon;timestamp;P1;durP1;ratioP1;P2;durP2;ratioP2
23714;SDS011;12036;50.858;4.472;2022-07-30T00:01:39;10.05;;;4.85;;
23714;SDS011;12036;50.858;4.472;2022-07-30T00:04:04;8.00;;;4.55;;
23714;SDS011;12036;50.858;4.472;2022-07-30T00:06:30;14.13;;;4.55;;
23714;SDS011;12036;50.858;4.472;2022-07-30T00:08:56;15.18;;;4.90;;
23714;SDS011;12036;50.858;4.472;2022-07-30T00:11:22;11.10;;;4.43;;
23714;SDS011;12036;50.858;4.472;2022-07-30T00:13:48;11.95;;;4.75;;
23714;SDS011;12036;50.858;4.472;2022-07-30T00:16:14;18.70;;;4.90;;
23714;SDS011;12036;50.858;4.472;2022-07-30T00:18:40;7.95;;;4.68;;
23714;SDS011;12036;50.858;4.472;2022-07-30T00:21:06;11.93;;;4.50;;
23714;SDS011;12036;50.858;4.472;2022-07-30T00:23:32;9.80;;;4.45;;
23714;SDS011;12036;50.858;4.472;2022-07-30T00:25:58;10.10;;;4.80;;
23714;SDS011;12036;50.858;4.472;2022-07-30T00:28:24;11.13;;;5.22;;
23714;SDS011;12036;50.858;4.472;2022-07-30T00:30:49;11.02;;;5.07;;
23714;SDS011;12036;50.858;4.472;2022-07-30T00:33:15;11.15;;;5.60;;
23714;SDS011;12036;50.858;4.472;2022-07-30T00:35:41;11.25;;;5.82;;
23714;SDS011;12036;50.858;4.472;2022-07-30T00:38:06;15.15;;;5.45;;
23714;SDS011;12036;50.858;4.472;2022-07-30T00:40:32;13.10;;;6.25;;
23714;SDS011;12036;50.858;4.472;2022-07-30T00:42:58;10.13;;;6.07;;
23714;SDS011;12036;50.858;4.472;2022-07-30T00:45:23;11.48;;;5.43;;
23714;SDS011;12036;50.858;4.472;2022-07-30T00:47:49;12.80;;;5.40;;
23714;SDS011;12036;50.858;4.472;2022-07-30T00:50:15;8.10;;;4.75;;
23714;SDS011;12036;50.858;4.472;2022-07-30T00:52:41;8.45;;;5.22;;
23714;SDS011;12036;50.858;4.472;2022-07-30T00:55:08;9.95;;;4.32;;
23714;SDS011;12036;50.858;4.472;2022-07-30T00:57:35;13.40;;;5.22;;
23714;SDS011;12036;50.858;4.472;2022-07-30T01:00:01;9.95;;;5.13;;
23714;SDS011;12036;50.858;4.472;2022-07-30T01:02:30;11.13;;;5.07;;
23714;SDS011;12036;50.858;4.472;2022-07-30T01:04:55;10.35;;;5.07;;
23714;SDS011;12036;50.858;4.472;2022-07-30T01:07:21;7.57;;;4.80;;
23714;SDS011;12036;50.858;4.472;2022-07-30T01:09:46;10.18;;;4.88;;
23714;SDS011;12036;50.858;4.472;2022-07-30T01:12:12;8.75;;;5.10;;
23714;SDS011;12036;50.858;4.472;2022-07-30T01:14:44;12.32;;;4.90;;
23714;SDS011;12036;50.858;4.472;2022-07-30T01:17:10;10.27;;;4.88;;
23714;SDS011;12036;50.858;4.472;2022-07-30T01:19:36;12.60;;;5.30;;
23714;SDS011;12036;50.858;4.472;2022-07-30T01:24:54;9.52;;;4.55;;
23714;SDS011;12036;50.858;4.472;2022-07-30T01:27:26;10.15;;;5.25;;
23714;SDS011;12036;50.858;4.472;2022-07-30T01:32:25;8.60;;;5.55;;
23714;SDS011;12036;50.858;4.472;2022-07-30T01:34:52;12.45;;;5.97;;
23714;SDS011;12036;50.858;4.472;2022-07-30T01:37:21;10.93;;;5.75;;
23714;SDS011;12036;50.858;4.472;2022-07-30T01:39:48;8.85;;;5.55;;
23714;SDS011;12036;50.858;4.472;2022-07-30T01:42:16;8.63;;;5.35;;
23714;SDS011;12036;50.858;4.472;2022-07-30T01:44:45;13.77;;;6.18;;
23714;SDS011;12036;50.858;4.472;2022-07-30T01:47:13;10.57;;;6.03;;
23714;SDS011;12036;50.858;4.472;2022-07-30T01:49:41;9.93;;;5.30;;
23714;SDS011;12036;50.858;4.472;2022-07-30T01:52:11;7.18;;;5.20;;
23714;SDS011;12036;50.858;4.472;2022-07-30T01:54:38;7.25;;;4.72;;
23714;SDS011;12036;50.858;4.472;2022-07-30T01:57:05;9.82;;;5.25;;
23714;SDS011;12036;50.858;4.472;2022-07-30T01:59:32;9.30;;;5.97;;
23714;SDS011;12036;50.858;4.472;2022-07-30T02:01:59;8.73;;;5.10;;
23714;SDS011;12036;50.858;4.472;2022-07-30T02:04:26;9.80;;;5.88;;
23714;SDS011;12036;50.858;4.472;2022-07-30T02:06:57;12.32;;;6.05;;
23714;SDS011;12036;50.858;4.472;2022-07-30T02:09:32;9.73;;;5.85;;
23714;SDS011;12036;50.858;4.472;2022-07-30T02:12:01;7.90;;;6.30;;
23714;SDS011;12036;50.858;4.472;2022-07-30T02:14:48;11.00;;;6.15;;
23714;SDS011;12036;50.858;4.472;2022-07-30T02:17:22;9.25;;;6.18;;
23714;SDS011;12036;50.858;4.472;2022-07-30T02:19:53;9.55;;;6.50;;
23714;SDS011;12036;50.858;4.472;2022-07-30T02:22:22;14.07;;;7.32;;
23714;SDS011;12036;50.858;4.472;2022-07-30T02:24:50;10.90;;;7.45;;
23714;SDS011;12036;50.858;4.472;2022-07-30T02:27:19;9.57;;;5.97;;
23714;SDS011;12036;50.858;4.472;2022-07-30T02:29:49;12.90;;;7.07;;
23714;SDS011;12036;50.858;4.472;2022-07-30T02:32:18;12.88;;;7.10;;
23714;SDS011;12036;50.858;4.472;2022-07-30T02:34:47;10.45;;;6.68;;
23714;SDS011;12036;50.858;4.472;2022-07-30T02:37:17;12.48;;;6.60;;
23714;SDS011;12036;50.858;4.472;2022-07-30T02:39:47;8.63;;;6.80;;
23714;SDS011;12036;50.858;4.472;2022-07-30T02:42:14;12.55;;;6.97;;
23714;SDS011;12036;50.858;4.472;2022-07-30T02:44:42;12.65;;;6.93;;
23714;SDS011;12036;50.858;4.472;2022-07-30T02:47:13;15.20;;;8.80;;
23714;SDS011;12036;50.858;4.472;2022-07-30T02:49:40;15.60;;;8.90;;
23714;SDS011;12036;50.858;4.472;2022-07-30T02:52:08;14.60;;;8.88;;
23714;SDS011;12036;50.858;4.472;2022-07-30T02:54:39;12.73;;;7.47;;
23714;SDS011;12036;50.858;4.472;2022-07-30T02:57:07;12.27;;;8.25;;
23714;SDS011;12036;50.858;4.472;2022-07-30T02:59:35;13.00;;;8.38;;
23714;SDS011;12036;50.858;4.472;2022-07-30T03:02:02;11.98;;;7.05;;
23714;SDS011;12036;50.858;4.472;2022-07-30T03:04:31;19.13;;;7.65;;
23714;SDS011;12036;50.858;4.472;2022-07-30T03:06:58;13.27;;;7.63;;
23714;SDS011;12036;50.858;4.472;2022-07-30T03:09:25;11.48;;;7.60;;
23714;SDS011;12036;50.858;4.472;2022-07-30T03:11:52;10.93;;;7.32;;
23714;SDS011;12036;50.858;4.472;2022-07-30T03:14:20;13.18;;;7.75;;
23714;SDS011;12036;50.858;4.472;2022-07-30T03:16:47;16.10;;;7.20;;
23714;SDS011;12036;50.858;4.472;2022-07-30T03:19:19;11.52;;;7.47;;
23714;SDS011;12036;50.858;4.472;2022-07-30T03:21:47;13.90;;;7.15;;
23714;SDS011;12036;50.858;4.472;2022-07-30T03:24:16;9.80;;;6.93;;
23714;SDS011;12036;50.858;4.472;2022-07-30T03:26:43;12.02;;;7.40;;
23714;SDS011;12036;50.858;4.472;2022-07-30T03:29:10;12.07;;;7.65;;
23714;SDS011;12036;50.858;4.472;2022-07-30T03:31:38;12.70;;;7.68;;
23714;SDS011;12036;50.858;4.472;2022-07-30T03:34:05;12.63;;;7.53;;
23714;SDS011;12036;50.858;4.472;2022-07-30T03:36:33;11.93;;;7.90;;
23714;SDS011;12036;50.858;4.472;2022-07-30T03:39:00;11.55;;;7.55;;
23714;SDS011;12036;50.858;4.472;2022-07-30T03:41:29;15.25;;;7.05;;
23714;SDS011;12036;50.858;4.472;2022-07-30T03:43:55;13.25;;;8.75;;
23714;SDS011;12036;50.858;4.472;2022-07-30T03:46:22;15.90;;;7.55;;
23714;SDS011;12036;50.858;4.472;2022-07-30T03:48:49;12.82;;;7.30;;
23714;SDS011;12036;50.858;4.472;2022-07-30T03:51:17;15.48;;;8.13;;
23714;SDS011;12036;50.858;4.472;2022-07-30T03:53:42;15.70;;;7.43;;
23714;SDS011;12036;50.858;4.472;2022-07-30T03:56:11;13.73;;;8.00;;
23714;SDS011;12036;50.858;4.472;2022-07-30T03:58:38;12.23;;;7.75;;
23714;SDS011;12036;50.858;4.472;2022-07-30T04:01:03;16.35;;;7.90;;
23714;SDS011;12036;50.858;4.472;2022-07-30T04:03:30;10.70;;;7.07;;
23714;SDS011;12036;50.858;4.472;2022-07-30T04:05:57;9.63;;;7.30;;
23714;SDS011;12036;50.858;4.472;2022-07-30T04:08:23;11.23;;;8.00;;
23714;SDS011;12036;50.858;4.472;2022-07-30T04:10:49;18.13;;;8.10;;
23714;SDS011;12036;50.858;4.472;2022-07-30T04:13:15;15.93;;;8.68;;
23714;SDS011;12036;50.858;4.472;2022-07-30T04:18:53;11.80;;;7.82;;
23714;SDS011;12036;50.858;4.472;2022-07-30T04:21:23;15.50;;;8.60;;
23714;SDS011;12036;50.858;4.472;2022-07-30T04:23:50;15.35;;;8.50;;
23714;SDS011;12036;50.858;4.472;2022-07-30T04:26:17;13.05;;;8.52;;
23714;SDS011;12036;50.858;4.472;2022-07-30T04:28:43;12.77;;;8.32;;
23714;SDS011;12036;50.858;4.472;2022-07-30T04:31:10;11.23;;;8.35;;
23714;SDS011;12036;50.858;4.472;2022-07-30T04:33:36;12.10;;;8.50;;
23714;SDS011;12036;50.858;4.472;2022-07-30T04:36:08;13.20;;;7.68;;
23714;SDS011;12036;50.858;4.472;2022-07-30T04:38:34;12.13;;;8.27;;
23714;SDS011;12036;50.858;4.472;2022-07-30T04:41:00;11.65;;;8.27;;
23714;SDS011;12036;50.858;4.472;2022-07-30T04:43:26;10.80;;;8.00;;
23714;SDS011;12036;50.858;4.472;2022-07-30T04:45:51;15.43;;;7.90;;
23714;SDS011;12036;50.858;4.472;2022-07-30T04:48:17;12.18;;;8.57;;
23714;SDS011;12036;50.858;4.472;2022-07-30T04:50:45;12.50;;;7.82;;
23714;SDS011;12036;50.858;4.472;2022-07-30T04:53:13;11.25;;;7.57;;
23714;SDS011;12036;50.858;4.472;2022-07-30T04:55:41;14.50;;;7.80;;
23714;SDS011;12036;50.858;4.472;2022-07-30T04:58:09;12.15;;;7.80;;
23714;SDS011;12036;50.858;4.472;2022-07-30T05:00:37;11.85;;;8.07;;
23714;SDS011;12036;50.858;4.472;2022-07-30T05:03:04;12.73;;;8.05;;
23714;SDS011;12036;50.858;4.472;2022-07-30T05:05:30;8.80;;;7.10;;
23714;SDS011;12036;50.858;4.472;2022-07-30T05:07:58;17.85;;;7.90;;
23714;SDS011;12036;50.858;4.472;2022-07-30T05:10:25;8.40;;;7.20;;
23714;SDS011;12036;50.858;4.472;2022-07-30T05:12:51;15.30;;;9.27;;
23714;SDS011;12036;50.858;4.472;2022-07-30T05:15:17;9.32;;;7.25;;
23714;SDS011;12036;50.858;4.472;2022-07-30T05:17:44;9.77;;;7.35;;
23714;SDS011;12036;50.858;4.472;2022-07-30T05:20:10;13.30;;;8.05;;
23714;SDS011;12036;50.858;4.472;2022-07-30T05:22:36;11.40;;;7.43;;
23714;SDS011;12036;50.858;4.472;2022-07-30T05:25:01;12.27;;;8.77;;
23714;SDS011;12036;50.858;4.472;2022-07-30T05:27:27;16.20;;;10.20;;
23714;SDS011;12036;50.858;4.472;2022-07-30T05:29:53;12.93;;;9.57;;
23714;SDS011;12036;50.858;4.472;2022-07-30T05:32:18;18.17;;;8.57;;
23714;SDS011;12036;50.858;4.472;2022-07-30T05:34:44;12.85;;;9.35;;
23714;SDS011;12036;50.858;4.472;2022-07-30T05:37:10;13.68;;;8.77;;
23714;SDS011;12036;50.858;4.472;2022-07-30T05:39:35;12.48;;;8.32;;
23714;SDS011;12036;50.858;4.472;2022-07-30T05:42:01;16.55;;;8.93;;
23714;SDS011;12036;50.858;4.472;2022-07-30T05:44:27;11.95;;;8.02;;
23714;SDS011;12036;50.858;4.472;2022-07-30T05:46:52;14.85;;;8.40;;
23714;SDS011;12036;50.858;4.472;2022-07-30T05:49:18;16.80;;;8.75;;
23714;SDS011;12036;50.858;4.472;2022-07-30T05:51:44;13.75;;;7.53;;
23714;SDS011;12036;50.858;4.472;2022-07-30T05:54:09;8.88;;;6.95;;
23714;SDS011;12036;50.858;4.472;2022-07-30T05:56:35;11.80;;;7.38;;
23714;SDS011;12036;50.858;4.472;2022-07-30T05:59:01;14.90;;;7.95;;
23714;SDS011;12036;50.858;4.472;2022-07-30T06:01:28;9.60;;;7.05;;
23714;SDS011;12036;50.858;4.472;2022-07-30T06:03:53;9.57;;;6.60;;
23714;SDS011;12036;50.858;4.472;2022-07-30T06:06:19;14.63;;;6.63;;
23714;SDS011;12036;50.858;4.472;2022-07-30T06:08:45;12.52;;;7.20;;
23714;SDS011;12036;50.858;4.472;2022-07-30T06:11:10;9.05;;;6.25;;
23714;SDS011;12036;50.858;4.472;2022-07-30T06:13:36;11.18;;;6.40;;
23714;SDS011;12036;50.858;4.472;2022-07-30T06:16:02;10.85;;;6.40;;
23714;SDS011;12036;50.858;4.472;2022-07-30T06:18:28;12.82;;;6.18;;
23714;SDS011;12036;50.858;4.472;2022-07-30T06:20:54;11.35;;;6.55;;
23714;SDS011;12036;50.858;4.472;2022-07-30T06:23:20;13.45;;;5.70;;
23714;SDS011;12036;50.858;4.472;2022-07-30T06:25:46;10.70;;;5.80;;
23714;SDS011;12036;50.858;4.472;2022-07-30T06:28:13;13.27;;;5.97;;
23714;SDS011;12036;50.858;4.472;2022-07-30T06:30:39;12.13;;;5.57;;
23714;SDS011;12036;50.858;4.472;2022-07-30T06:33:05;10.32;;;4.57;;
23714;SDS011;12036;50.858;4.472;2022-07-30T06:35:31;9.65;;;4.00;;
23714;SDS011;12036;50.858;4.472;2022-07-30T06:37:58;7.55;;;3.75;;
23714;SDS011;12036;50.858;4.472;2022-07-30T06:40:24;9.40;;;3.25;;
23714;SDS011;12036;50.858;4.472;2022-07-30T06:42:50;7.82;;;3.33;;
23714;SDS011;12036;50.858;4.472;2022-07-30T06:45:15;8.73;;;2.97;;
23714;SDS011;12036;50.858;4.472;2022-07-30T06:47:41;5.55;;;2.70;;
23714;SDS011;12036;50.858;4.472;2022-07-30T06:50:07;6.18;;;2.10;;
23714;SDS011;12036;50.858;4.472;2022-07-30T06:52:33;5.97;;;2.30;;
23714;SDS011;12036;50.858;4.472;2022-07-30T06:54:58;7.57;;;2.33;;
23714;SDS011;12036;50.858;4.472;2022-07-30T06:57:24;7.32;;;1.98;;
23714;SDS011;12036;50.858;4.472;2022-07-30T06:59:50;6.03;;;2.88;;
23714;SDS011;12036;50.858;4.472;2022-07-30T07:02:16;4.50;;;2.83;;
23714;SDS011;12036;50.858;4.472;2022-07-30T07:04:42;4.88;;;2.25;;
23714;SDS011;12036;50.858;4.472;2022-07-30T07:07:08;6.05;;;2.30;;
23714;SDS011;12036;50.858;4.472;2022-07-30T07:09:34;3.80;;;2.30;;
23714;SDS011;12036;50.858;4.472;2022-07-30T07:11:59;6.22;;;2.20;;
23714;SDS011;12036;50.858;4.472;2022-07-30T07:14:25;20.60;;;2.70;;
23714;SDS011;12036;50.858;4.472;2022-07-30T07:16:51;3.78;;;1.70;;
23714;SDS011;12036;50.858;4.472;2022-07-30T07:19:17;5.10;;;1.88;;
23714;SDS011;12036;50.858;4.472;2022-07-30T07:21:42;4.65;;;2.10;;
23714;SDS011;12036;50.858;4.472;2022-07-30T07:24:08;4.32;;;2.00;;
23714;SDS011;12036;50.858;4.472;2022-07-30T07:26:33;3.47;;;2.25;;
23714;SDS011;12036;50.858;4.472;2022-07-30T07:28:59;6.32;;;1.80;;
23714;SDS011;12036;50.858;4.472;2022-07-30T07:31:25;3.28;;;1.60;;
23714;SDS011;12036;50.858;4.472;2022-07-30T07:33:51;3.17;;;1.50;;
23714;SDS011;12036;50.858;4.472;2022-07-30T07:36:20;4.32;;;1.88;;
23714;SDS011;12036;50.858;4.472;2022-07-30T07:38:46;5.75;;;1.83;;
23714;SDS011;12036;50.858;4.472;2022-07-30T07:41:12;3.75;;;1.90;;
23714;SDS011;12036;50.858;4.472;2022-07-30T07:43:37;4.95;;;1.60;;
23714;SDS011;12036;50.858;4.472;2022-07-30T07:46:04;5.40;;;1.88;;
23714;SDS011;12036;50.858;4.472;2022-07-30T07:48:30;7.00;;;2.03;;
23714;SDS011;12036;50.858;4.472;2022-07-30T07:50:56;2.67;;;1.70;;
23714;SDS011;12036;50.858;4.472;2022-07-30T07:53:22;5.45;;;1.80;;
23714;SDS011;12036;50.858;4.472;2022-07-30T07:55:47;5.07;;;1.77;;
23714;SDS011;12036;50.858;4.472;2022-07-30T07:58:13;2.75;;;1.70;;
23714;SDS011;12036;50.858;4.472;2022-07-30T08:00:39;4.78;;;1.80;;
23714;SDS011;12036;50.858;4.472;2022-07-30T08:03:05;6.13;;;1.80;;
23714;SDS011;12036;50.858;4.472;2022-07-30T08:05:31;4.40;;;1.80;;
23714;SDS011;12036;50.858;4.472;2022-07-30T08:07:56;3.28;;;1.30;;
23714;SDS011;12036;50.858;4.472;2022-07-30T08:10:22;5.13;;;1.90;;
23714;SDS011;12036;50.858;4.472;2022-07-30T08:12:48;7.35;;;1.58;;
23714;SDS011;12036;50.858;4.472;2022-07-30T08:15:14;3.75;;;1.20;;
23714;SDS011;12036;50.858;4.472;2022-07-30T08:17:40;7.35;;;1.17;;
23714;SDS011;12036;50.858;4.472;2022-07-30T08:20:06;3.40;;;1.00;;
23714;SDS011;12036;50.858;4.472;2022-07-30T08:22:33;3.90;;;0.98;;
23714;SDS011;12036;50.858;4.472;2022-07-30T08:24:59;4.15;;;1.20;;
23714;SDS011;12036;50.858;4.472;2022-07-30T08:27:24;5.72;;;1.15;;
23714;SDS011;12036;50.858;4.472;2022-07-30T08:29:50;4.60;;;1.17;;
23714;SDS011;12036;50.858;4.472;2022-07-30T08:32:16;3.35;;;1.00;;
23714;SDS011;12036;50.858;4.472;2022-07-30T08:34:41;4.53;;;1.17;;
23714;SDS011;12036;50.858;4.472;2022-07-30T08:37:07;3.00;;;1.15;;
23714;SDS011;12036;50.858;4.472;2022-07-30T08:39:33;5.03;;;1.10;;
23714;SDS011;12036;50.858;4.472;2022-07-30T08:41:59;5.75;;;1.17;;
23714;SDS011;12036;50.858;4.472;2022-07-30T08:44:26;2.92;;;1.13;;
23714;SDS011;12036;50.858;4.472;2022-07-30T08:46:53;1.67;;;0.93;;
23714;SDS011;12036;50.858;4.472;2022-07-30T08:49:22;2.97;;;1.00;;
23714;SDS011;12036;50.858;4.472;2022-07-30T08:51:49;4.72;;;1.30;;
23714;SDS011;12036;50.858;4.472;2022-07-30T08:54:15;2.95;;;1.10;;
23714;SDS011;12036;50.858;4.472;2022-07-30T08:56:43;2.20;;;1.15;;
23714;SDS011;12036;50.858;4.472;2022-07-30T08:59:09;1.25;;;0.98;;
23714;SDS011;12036;50.858;4.472;2022-07-30T09:01:35;2.92;;;1.10;;
23714;SDS011;12036;50.858;4.472;2022-07-30T09:04:01;1.00;;;0.77;;
23714;SDS011;12036;50.858;4.472;2022-07-30T09:06:27;3.03;;;1.10;;
23714;SDS011;12036;50.858;4.472;2022-07-30T09:08:53;3.95;;;1.10;;
23714;SDS011;12036;50.858;4.472;2022-07-30T09:11:19;4.57;;;1.10;;
23714;SDS011;12036;50.858;4.472;2022-07-30T09:13:45;4.30;;;1.02;;
23714;SDS011;12036;50.858;4.472;2022-07-30T09:16:23;3.47;;;0.90;;
23714;SDS011;12036;50.858;4.472;2022-07-30T09:18:51;1.70;;;0.88;;
23714;SDS011;12036;50.858;4.472;2022-07-30T09:21:22;2.35;;;0.90;;
23714;SDS011;12036;50.858;4.472;2022-07-30T09:24:06;3.35;;;1.00;;
23714;SDS011;12036;50.858;4.472;2022-07-30T09:26:50;4.00;;;0.95;;
23714;SDS011;12036;50.858;4.472;2022-07-30T09:29:22;4.70;;;1.20;;
23714;SDS011;12036;50.858;4.472;2022-07-30T09:34:22;2.10;;;1.17;;
23714;SDS011;12036;50.858;4.472;2022-07-30T09:36:49;6.25;;;0.95;;
23714;SDS011;12036;50.858;4.472;2022-07-30T09:39:26;3.20;;;1.05;;
23714;SDS011;12036;50.858;4.472;2022-07-30T09:42:00;1.00;;;0.80;;
23714;SDS011;12036;50.858;4.472;2022-07-30T09:44:27;5.00;;;1.10;;
23714;SDS011;12036;50.858;4.472;2022-07-30T09:46:55;1.30;;;0.90;;
23714;SDS011;12036;50.858;4.472;2022-07-30T09:49:22;3.13;;;0.90;;
23714;SDS011;12036;50.858;4.472;2022-07-30T09:54:19;2.72;;;0.90;;
23714;SDS011;12036;50.858;4.472;2022-07-30T09:56:45;4.28;;;0.75;;
23714;SDS011;12036;50.858;4.472;2022-07-30T09:59:26;2.05;;;1.00;;
23714;SDS011;12036;50.858;4.472;2022-07-30T10:01:54;2.05;;;0.77;;
23714;SDS011;12036;50.858;4.472;2022-07-30T10:06:50;4.00;;;0.88;;
23714;SDS011;12036;50.858;4.472;2022-07-30T10:11:55;1.98;;;1.10;;
23714;SDS011;12036;50.858;4.472;2022-07-30T10:14:22;1.88;;;0.75;;
23714;SDS011;12036;50.858;4.472;2022-07-30T10:16:51;2.95;;;0.88;;
23714;SDS011;12036;50.858;4.472;2022-07-30T10:19:17;1.38;;;0.90;;
23714;SDS011;12036;50.858;4.472;2022-07-30T10:21:44;3.25;;;1.10;;
23714;SDS011;12036;50.858;4.472;2022-07-30T10:24:10;3.08;;;1.00;;
23714;SDS011;12036;50.858;4.472;2022-07-30T10:26:37;3.08;;;1.05;;
23714;SDS011;12036;50.858;4.472;2022-07-30T10:29:03;1.92;;;1.10;;
23714;SDS011;12036;50.858;4.472;2022-07-30T10:31:29;2.70;;;1.00;;
23714;SDS011;12036;50.858;4.472;2022-07-30T10:33:55;2.35;;;1.10;;
23714;SDS011;12036;50.858;4.472;2022-07-30T10:36:22;1.20;;;1.00;;
23714;SDS011;12036;50.858;4.472;2022-07-30T10:38:49;2.53;;;1.05;;
23714;SDS011;12036;50.858;4.472;2022-07-30T10:49:29;3.67;;;1.52;;
23714;SDS011;12036;50.858;4.472;2022-07-30T10:51:55;3.53;;;0.95;;
23714;SDS011;12036;50.858;4.472;2022-07-30T11:02:20;3.15;;;1.30;;
23714;SDS011;12036;50.858;4.472;2022-07-30T11:04:47;2.17;;;1.10;;
23714;SDS011;12036;50.858;4.472;2022-07-30T11:09:48;4.65;;;1.40;;
23714;SDS011;12036;50.858;4.472;2022-07-30T11:12:14;3.63;;;1.20;;
23714;SDS011;12036;50.858;4.472;2022-07-30T11:15:06;1.98;;;1.00;;
23714;SDS011;12036;50.858;4.472;2022-07-30T11:20:30;3.50;;;1.13;;
23714;SDS011;12036;50.858;4.472;2022-07-30T11:23:07;4.13;;;1.40;;
23714;SDS011;12036;50.858;4.472;2022-07-30T11:25:42;2.25;;;1.20;;
23714;SDS011;12036;50.858;4.472;2022-07-30T11:28:25;3.58;;;1.60;;
23714;SDS011;12036;50.858;4.472;2022-07-30T11:31:00;7.15;;;1.52;;
23714;SDS011;12036;50.858;4.472;2022-07-30T11:33:27;3.78;;;1.42;;
23714;SDS011;12036;50.858;4.472;2022-07-30T11:41:20;5.13;;;1.25;;
23714;SDS011;12036;50.858;4.472;2022-07-30T11:43:45;7.57;;;1.75;;
23714;SDS011;12036;50.858;4.472;2022-07-30T11:46:17;4.65;;;1.73;;
23714;SDS011;12036;50.858;4.472;2022-07-30T11:48:54;4.57;;;1.65;;
23714;SDS011;12036;50.858;4.472;2022-07-30T11:51:24;3.50;;;1.90;;
23714;SDS011;12036;50.858;4.472;2022-07-30T11:54:11;2.53;;;1.50;;
23714;SDS011;12036;50.858;4.472;2022-07-30T11:56:36;3.63;;;1.70;;
23714;SDS011;12036;50.858;4.472;2022-07-30T11:59:12;5.13;;;1.95;;
23714;SDS011;12036;50.858;4.472;2022-07-30T12:01:37;7.10;;;1.60;;
23714;SDS011;12036;50.858;4.472;2022-07-30T12:04:03;4.15;;;1.83;;
23714;SDS011;12036;50.858;4.472;2022-07-30T12:06:31;2.45;;;1.42;;
23714;SDS011;12036;50.858;4.472;2022-07-30T12:08:57;5.63;;;1.38;;
23714;SDS011;12036;50.858;4.472;2022-07-30T12:11:23;3.65;;;1.25;;
23714;SDS011;12036;50.858;4.472;2022-07-30T12:13:56;3.63;;;1.40;;
23714;SDS011;12036;50.858;4.472;2022-07-30T12:16:24;3.03;;;1.50;;
23714;SDS011;12036;50.858;4.472;2022-07-30T12:18:51;3.67;;;1.50;;
23714;SDS011;12036;50.858;4.472;2022-07-30T12:21:17;3.03;;;1.38;;
23714;SDS011;12036;50.858;4.472;2022-07-30T12:26:22;6.30;;;1.50;;
23714;SDS011;12036;50.858;4.472;2022-07-30T12:28:50;2.45;;;1.25;;
23714;SDS011;12036;50.858;4.472;2022-07-30T12:31:16;2.22;;;1.48;;
23714;SDS011;12036;50.858;4.472;2022-07-30T12:33:42;4.53;;;1.73;;
23714;SDS011;12036;50.858;4.472;2022-07-30T12:36:08;5.88;;;1.42;;
23714;SDS011;12036;50.858;4.472;2022-07-30T12:38:44;3.75;;;1.42;;
23714;SDS011;12036;50.858;4.472;2022-07-30T12:41:16;4.22;;;1.48;;
23714;SDS011;12036;50.858;4.472;2022-07-30T12:46:14;5.93;;;2.35;;
23714;SDS011;12036;50.858;4.472;2022-07-30T12:49:05;4.88;;;1.60;;
23714;SDS011;12036;50.858;4.472;2022-07-30T12:51:33;3.60;;;1.40;;
23714;SDS011;12036;50.858;4.472;2022-07-30T12:54:15;2.35;;;1.50;;
23714;SDS011;12036;50.858;4.472;2022-07-30T12:56:59;4.38;;;1.60;;
23714;SDS011;12036;50.858;4.472;2022-07-30T12:59:27;5.47;;;1.70;;
23714;SDS011;12036;50.858;4.472;2022-07-30T13:01:53;3.97;;;1.33;;
23714;SDS011;12036;50.858;4.472;2022-07-30T13:04:21;2.38;;;1.10;;
23714;SDS011;12036;50.858;4.472;2022-07-30T13:07:03;4.07;;;1.25;;
23714;SDS011;12036;50.858;4.472;2022-07-30T13:09:34;2.95;;;1.35;;
23714;SDS011;12036;50.858;4.472;2022-07-30T13:12:01;5.68;;;1.35;;
23714;SDS011;12036;50.858;4.472;2022-07-30T13:14:27;2.92;;;1.45;;
23714;SDS011;12036;50.858;4.472;2022-07-30T13:16:54;5.45;;;1.20;;
23714;SDS011;12036;50.858;4.472;2022-07-30T13:19:20;6.25;;;1.42;;
23714;SDS011;12036;50.858;4.472;2022-07-30T13:21:46;8.00;;;1.40;;
23714;SDS011;12036;50.858;4.472;2022-07-30T13:24:12;1.33;;;1.10;;
23714;SDS011;12036;50.858;4.472;2022-07-30T13:26:38;2.00;;;1.25;;
23714;SDS011;12036;50.858;4.472;2022-07-30T13:29:04;6.53;;;1.35;;
23714;SDS011;12036;50.858;4.472;2022-07-30T13:31:30;2.30;;;1.27;;
23714;SDS011;12036;50.858;4.472;2022-07-30T13:33:55;4.82;;;1.23;;
23714;SDS011;12036;50.858;4.472;2022-07-30T13:36:21;3.45;;;1.15;;
23714;SDS011;12036;50.858;4.472;2022-07-30T13:38:47;4.40;;;1.58;;
23714;SDS011;12036;50.858;4.472;2022-07-30T13:41:13;2.90;;;1.60;;
23714;SDS011;12036;50.858;4.472;2022-07-30T13:43:41;3.42;;;1.65;;
23714;SDS011;12036;50.858;4.472;2022-07-30T13:46:07;4.85;;;1.38;;
23714;SDS011;12036;50.858;4.472;2022-07-30T13:48:33;1.90;;;1.00;;
23714;SDS011;12036;50.858;4.472;2022-07-30T13:51:00;4.38;;;1.27;;
23714;SDS011;12036;50.858;4.472;2022-07-30T13:53:26;1.95;;;1.00;;
23714;SDS011;12036;50.858;4.472;2022-07-30T13:55:52;2.58;;;1.13;;
23714;SDS011;12036;50.858;4.472;2022-07-30T13:58:18;3.50;;;1.35;;
23714;SDS011;12036;50.858;4.472;2022-07-30T14:00:43;2.47;;;1.38;;
23714;SDS011;12036;50.858;4.472;2022-07-30T14:03:11;2.50;;;1.40;;
23714;SDS011;12036;50.858;4.472;2022-07-30T14:05:38;3.97;;;1.10;;
23714;SDS011;12036;50.858;4.472;2022-07-30T14:08:04;3.08;;;1.00;;
23714;SDS011;12036;50.858;4.472;2022-07-30T14:10:31;4.47;;;1.30;;
23714;SDS011;12036;50.858;4.472;2022-07-30T14:12:58;3.55;;;1.17;;
23714;SDS011;12036;50.858;4.472;2022-07-30T14:15:25;3.00;;;1.30;;
23714;SDS011;12036;50.858;4.472;2022-07-30T14:17:55;4.78;;;1.15;;
23714;SDS011;12036;50.858;4.472;2022-07-30T14:20:21;3.80;;;1.20;;
23714;SDS011;12036;50.858;4.472;2022-07-30T14:22:47;6.93;;;1.10;;
23714;SDS011;12036;50.858;4.472;2022-07-30T14:25:13;7.57;;;1.10;;
23714;SDS011;12036;50.858;4.472;2022-07-30T14:27:39;1.60;;;1.02;;
23714;SDS011;12036;50.858;4.472;2022-07-30T14:30:06;2.40;;;1.00;;
23714;SDS011;12036;50.858;4.472;2022-07-30T14:32:33;2.55;;;1.40;;
23714;SDS011;12036;50.858;4.472;2022-07-30T14:34:59;5.13;;;1.23;;
23714;SDS011;12036;50.858;4.472;2022-07-30T14:37:25;2.00;;;1.30;;
23714;SDS011;12036;50.858;4.472;2022-07-30T14:39:50;2.78;;;1.20;;
23714;SDS011;12036;50.858;4.472;2022-07-30T14:42:16;2.58;;;1.17;;
23714;SDS011;12036;50.858;4.472;2022-07-30T14:44:44;2.85;;;1.20;;
23714;SDS011;12036;50.858;4.472;2022-07-30T14:47:10;3.78;;;1.40;;
23714;SDS011;12036;50.858;4.472;2022-07-30T14:49:37;4.00;;;1.38;;
23714;SDS011;12036;50.858;4.472;2022-07-30T14:52:03;2.03;;;1.10;;
23714;SDS011;12036;50.858;4.472;2022-07-30T14:54:29;2.83;;;1.38;;
23714;SDS011;12036;50.858;4.472;2022-07-30T14:56:57;2.40;;;1.20;;
23714;SDS011;12036;50.858;4.472;2022-07-30T14:59:23;2.58;;;1.10;;
23714;SDS011;12036;50.858;4.472;2022-07-30T15:01:49;2.83;;;0.95;;
23714;SDS011;12036;50.858;4.472;2022-07-30T15:04:16;2.22;;;1.45;;
23714;SDS011;12036;50.858;4.472;2022-07-30T15:06:42;3.38;;;1.00;;
23714;SDS011;12036;50.858;4.472;2022-07-30T15:09:07;2.25;;;1.00;;
23714;SDS011;12036;50.858;4.472;2022-07-30T15:11:33;5.43;;;0.88;;
23714;SDS011;12036;50.858;4.472;2022-07-30T15:13:59;1.92;;;0.90;;
23714;SDS011;12036;50.858;4.472;2022-07-30T15:16:25;1.67;;;0.90;;
23714;SDS011;12036;50.858;4.472;2022-07-30T15:18:51;4.30;;;1.10;;
23714;SDS011;12036;50.858;4.472;2022-07-30T15:21:17;1.98;;;0.80;;
23714;SDS011;12036;50.858;4.472;2022-07-30T15:23:42;5.70;;;1.02;;
23714;SDS011;12036;50.858;4.472;2022-07-30T15:26:08;2.63;;;1.13;;
23714;SDS011;12036;50.858;4.472;2022-07-30T15:28:34;3.97;;;1.15;;
23714;SDS011;12036;50.858;4.472;2022-07-30T15:31:00;3.83;;;1.13;;
23714;SDS011;12036;50.858;4.472;2022-07-30T15:33:25;1.98;;;1.02;;
23714;SDS011;12036;50.858;4.472;2022-07-30T15:35:51;4.22;;;1.00;;